Terminal Aerodrome Forecast
Issued by NWS

Home | Current Version | Previous Version | Text Only | Print | Product List | Glossary On
Versions: 1 2 3 4 5 6 7 8 9 10 11 12 13 14 15 16 17 18 19
000
FTUS43 KDMX 221120
TAFOTM
TAF
KOTM 221120Z 2212/2312 12009KT P6SM SCT060
     FM221600 15011KT P6SM BKN050
     FM230700 15009KT 6SM -SHRA OVC030=

USA.gov is the U.S. government's official web portal to all federal, state and local government web resources and services.